Terminal Aerodrome Forecast
Issued by NWS

Home | Current Version | Previous Version | Text Only | Print | Product List | Glossary On
Versions: 1 2 3 4 5 6 7 8 9 10 11 12 13 14 15 16 17 18 19 20 21 22 23 24 25 26 27 28 29 30 31 32 33 34 35 36 37 38 39 40 41 42 43
000
FTUS45 KBOU 261940 AAA
TAFBJC
TAF AMD
KBJC 261940Z 2620/2718 10007KT P6SM FEW090 BKN140
     FM262010 29012KT P6SM VCSH SCT080 BKN140
      TEMPO 2621/2624 VRB20G30KT -SHRA BKN070
     FM270100 19011KT P6SM SCT090 BKN140
     FM270400 25005KT P6SM FEW090 BKN150=

USA.gov is the U.S. government's official web portal to all federal, state and local government web resources and services.